sensor_id;sensor_type;location;lat;lon;timestamp;temperature;humidity
13052;DHT22;6592;47.484;9.726;2023-04-25T00:01:05;8.50;99.90
13052;DHT22;6592;47.484;9.726;2023-04-25T00:03:34;8.50;99.90
13052;DHT22;6592;47.484;9.726;2023-04-25T00:06:03;8.40;99.90
13052;DHT22;6592;47.484;9.726;2023-04-25T00:08:32;8.40;99.90
13052;DHT22;6592;47.484;9.726;2023-04-25T00:11:00;8.40;99.90
13052;DHT22;6592;47.484;9.726;2023-04-25T00:13:28;8.40;99.90
13052;DHT22;6592;47.484;9.726;2023-04-25T00:15:57;8.40;99.90
13052;DHT22;6592;47.484;9.726;2023-04-25T00:18:25;8.40;99.90
13052;DHT22;6592;47.484;9.726;2023-04-25T00:20:57;8.40;99.90
13052;DHT22;6592;47.484;9.726;2023-04-25T00:23:25;8.30;99.90
13052;DHT22;6592;47.484;9.726;2023-04-25T00:25:53;8.30;99.90
13052;DHT22;6592;47.484;9.726;2023-04-25T00:28:21;8.30;99.90
13052;DHT22;6592;47.484;9.726;2023-04-25T00:30:49;8.30;99.90
13052;DHT22;6592;47.484;9.726;2023-04-25T00:33:18;8.40;99.90
13052;DHT22;6592;47.484;9.726;2023-04-25T00:35:46;8.30;99.90
13052;DHT22;6592;47.484;9.726;2023-04-25T00:38:16;8.30;99.90
13052;DHT22;6592;47.484;9.726;2023-04-25T00:40:44;8.30;99.90
13052;DHT22;6592;47.484;9.726;2023-04-25T00:43:12;8.30;99.90
13052;DHT22;6592;47.484;9.726;2023-04-25T00:45:40;8.30;99.90
13052;DHT22;6592;47.484;9.726;2023-04-25T00:48:11;8.40;99.90
13052;DHT22;6592;47.484;9.726;2023-04-25T00:50:43;8.40;99.90
13052;DHT22;6592;47.484;9.726;2023-04-25T00:53:17;8.40;99.90
13052;DHT22;6592;47.484;9.726;2023-04-25T00:55:46;8.40;99.90
13052;DHT22;6592;47.484;9.726;2023-04-25T00:58:14;8.40;99.90
13052;DHT22;6592;47.484;9.726;2023-04-25T01:00:42;8.40;99.90
13052;DHT22;6592;47.484;9.726;2023-04-25T01:03:12;8.40;99.90
13052;DHT22;6592;47.484;9.726;2023-04-25T01:05:40;8.30;99.90
13052;DHT22;6592;47.484;9.726;2023-04-25T01:08:09;8.20;99.90
13052;DHT22;6592;47.484;9.726;2023-04-25T01:10:39;8.20;99.90
13052;DHT22;6592;47.484;9.726;2023-04-25T01:13:07;8.30;99.90
13052;DHT22;6592;47.484;9.726;2023-04-25T01:15:36;8.30;99.90
13052;DHT22;6592;47.484;9.726;2023-04-25T01:18:05;8.30;99.90
13052;DHT22;6592;47.484;9.726;2023-04-25T01:20:33;8.30;99.90
13052;DHT22;6592;47.484;9.726;2023-04-25T01:23:03;8.20;99.90
13052;DHT22;6592;47.484;9.726;2023-04-25T01:25:31;8.20;99.90
13052;DHT22;6592;47.484;9.726;2023-04-25T01:28:00;8.10;99.90
13052;DHT22;6592;47.484;9.726;2023-04-25T01:30:29;8.20;99.90
13052;DHT22;6592;47.484;9.726;2023-04-25T01:32:57;8.20;99.90
13052;DHT22;6592;47.484;9.726;2023-04-25T01:35:27;8.20;99.90
13052;DHT22;6592;47.484;9.726;2023-04-25T01:37:55;8.20;99.90
13052;DHT22;6592;47.484;9.726;2023-04-25T01:40:25;8.20;99.90
13052;DHT22;6592;47.484;9.726;2023-04-25T01:42:54;8.20;99.90
13052;DHT22;6592;47.484;9.726;2023-04-25T01:45:23;8.10;99.90
13052;DHT22;6592;47.484;9.726;2023-04-25T01:47:51;8.10;99.90
13052;DHT22;6592;47.484;9.726;2023-04-25T01:50:19;8.10;99.90
13052;DHT22;6592;47.484;9.726;2023-04-25T01:52:48;8.10;99.90
13052;DHT22;6592;47.484;9.726;2023-04-25T01:55:17;8.10;99.90
13052;DHT22;6592;47.484;9.726;2023-04-25T01:57:46;8.20;99.90
13052;DHT22;6592;47.484;9.726;2023-04-25T02:00:15;8.20;99.90
13052;DHT22;6592;47.484;9.726;2023-04-25T02:02:43;8.20;99.90
13052;DHT22;6592;47.484;9.726;2023-04-25T02:05:12;8.20;99.90
13052;DHT22;6592;47.484;9.726;2023-04-25T02:07:40;8.20;99.90
13052;DHT22;6592;47.484;9.726;2023-04-25T02:10:09;8.30;99.90
13052;DHT22;6592;47.484;9.726;2023-04-25T02:12:37;8.20;99.90
13052;DHT22;6592;47.484;9.726;2023-04-25T02:15:08;8.20;99.90
13052;DHT22;6592;47.484;9.726;2023-04-25T02:17:36;8.20;99.90
13052;DHT22;6592;47.484;9.726;2023-04-25T02:20:06;8.30;99.90
13052;DHT22;6592;47.484;9.726;2023-04-25T02:22:35;8.30;99.90
13052;DHT22;6592;47.484;9.726;2023-04-25T02:25:04;8.20;99.90
13052;DHT22;6592;47.484;9.726;2023-04-25T02:27:32;8.30;99.90
13052;DHT22;6592;47.484;9.726;2023-04-25T02:30:00;8.30;99.90
13052;DHT22;6592;47.484;9.726;2023-04-25T02:32:31;8.30;99.90
13052;DHT22;6592;47.484;9.726;2023-04-25T02:35:01;8.20;99.90
13052;DHT22;6592;47.484;9.726;2023-04-25T02:37:31;8.20;99.90
13052;DHT22;6592;47.484;9.726;2023-04-25T02:39:59;8.20;99.90
13052;DHT22;6592;47.484;9.726;2023-04-25T02:42:27;8.20;99.90
13052;DHT22;6592;47.484;9.726;2023-04-25T02:44:55;8.20;99.90
13052;DHT22;6592;47.484;9.726;2023-04-25T02:47:24;8.20;99.90
13052;DHT22;6592;47.484;9.726;2023-04-25T02:49:54;8.10;99.90
13052;DHT22;6592;47.484;9.726;2023-04-25T02:52:22;8.10;99.90
13052;DHT22;6592;47.484;9.726;2023-04-25T02:54:50;8.10;99.90
13052;DHT22;6592;47.484;9.726;2023-04-25T02:57:18;8.10;99.90
13052;DHT22;6592;47.484;9.726;2023-04-25T02:59:47;8.00;99.90
13052;DHT22;6592;47.484;9.726;2023-04-25T03:02:15;8.00;99.90
13052;DHT22;6592;47.484;9.726;2023-04-25T03:04:43;8.10;99.90
13052;DHT22;6592;47.484;9.726;2023-04-25T03:07:13;8.10;99.90
13052;DHT22;6592;47.484;9.726;2023-04-25T03:09:41;8.10;99.90
13052;DHT22;6592;47.484;9.726;2023-04-25T03:12:09;8.10;99.90
13052;DHT22;6592;47.484;9.726;2023-04-25T03:14:37;8.20;99.90
13052;DHT22;6592;47.484;9.726;2023-04-25T03:17:06;8.20;99.90
13052;DHT22;6592;47.484;9.726;2023-04-25T03:19:34;8.20;99.90
13052;DHT22;6592;47.484;9.726;2023-04-25T03:22:02;8.40;99.90
13052;DHT22;6592;47.484;9.726;2023-04-25T03:24:32;8.20;99.90
13052;DHT22;6592;47.484;9.726;2023-04-25T03:27:00;8.30;99.90
13052;DHT22;6592;47.484;9.726;2023-04-25T03:29:28;8.30;99.90
13052;DHT22;6592;47.484;9.726;2023-04-25T03:31:56;8.30;99.90
13052;DHT22;6592;47.484;9.726;2023-04-25T03:34:25;8.20;99.90
13052;DHT22;6592;47.484;9.726;2023-04-25T03:36:54;8.20;99.90
13052;DHT22;6592;47.484;9.726;2023-04-25T03:39:23;8.20;99.90
13052;DHT22;6592;47.484;9.726;2023-04-25T03:41:52;8.30;99.90
13052;DHT22;6592;47.484;9.726;2023-04-25T03:44:21;8.30;99.90
13052;DHT22;6592;47.484;9.726;2023-04-25T03:46:49;8.30;99.90
13052;DHT22;6592;47.484;9.726;2023-04-25T03:49:17;8.30;99.90
13052;DHT22;6592;47.484;9.726;2023-04-25T03:51:45;8.20;99.90
13052;DHT22;6592;47.484;9.726;2023-04-25T03:54:14;8.20;99.90
13052;DHT22;6592;47.484;9.726;2023-04-25T03:56:42;8.20;99.90
13052;DHT22;6592;47.484;9.726;2023-04-25T03:59:12;8.30;99.90
13052;DHT22;6592;47.484;9.726;2023-04-25T04:01:40;8.30;99.90
13052;DHT22;6592;47.484;9.726;2023-04-25T04:04:08;8.30;99.90
13052;DHT22;6592;47.484;9.726;2023-04-25T04:06:37;8.20;99.90
13052;DHT22;6592;47.484;9.726;2023-04-25T04:09:05;8.20;99.90
13052;DHT22;6592;47.484;9.726;2023-04-25T04:11:36;8.20;99.90
13052;DHT22;6592;47.484;9.726;2023-04-25T04:14:05;8.20;99.90
13052;DHT22;6592;47.484;9.726;2023-04-25T04:16:34;8.20;99.90
13052;DHT22;6592;47.484;9.726;2023-04-25T04:19:03;8.30;99.90
13052;DHT22;6592;47.484;9.726;2023-04-25T04:21:32;8.30;99.90
13052;DHT22;6592;47.484;9.726;2023-04-25T04:24:00;8.30;99.90
13052;DHT22;6592;47.484;9.726;2023-04-25T04:26:28;8.30;99.90
13052;DHT22;6592;47.484;9.726;2023-04-25T04:28:58;8.30;99.90
13052;DHT22;6592;47.484;9.726;2023-04-25T04:31:27;8.40;99.90
13052;DHT22;6592;47.484;9.726;2023-04-25T04:33:56;8.30;99.90
13052;DHT22;6592;47.484;9.726;2023-04-25T04:36:25;8.30;99.90
13052;DHT22;6592;47.484;9.726;2023-04-25T04:38:53;8.40;99.90
13052;DHT22;6592;47.484;9.726;2023-04-25T04:41:23;8.40;99.90
13052;DHT22;6592;47.484;9.726;2023-04-25T04:43:51;8.40;99.90
13052;DHT22;6592;47.484;9.726;2023-04-25T04:46:20;8.40;99.90
13052;DHT22;6592;47.484;9.726;2023-04-25T04:48:48;8.30;99.90
13052;DHT22;6592;47.484;9.726;2023-04-25T04:51:18;8.30;99.90
13052;DHT22;6592;47.484;9.726;2023-04-25T04:53:47;8.30;99.90
13052;DHT22;6592;47.484;9.726;2023-04-25T04:56:16;8.30;99.90
13052;DHT22;6592;47.484;9.726;2023-04-25T04:58:44;8.30;99.90
13052;DHT22;6592;47.484;9.726;2023-04-25T05:01:15;8.30;99.90
13052;DHT22;6592;47.484;9.726;2023-04-25T05:03:44;8.30;99.90
13052;DHT22;6592;47.484;9.726;2023-04-25T05:06:12;8.40;99.90
13052;DHT22;6592;47.484;9.726;2023-04-25T05:08:42;8.50;99.90
13052;DHT22;6592;47.484;9.726;2023-04-25T05:11:10;8.50;99.90
13052;DHT22;6592;47.484;9.726;2023-04-25T05:13:39;8.50;99.90
13052;DHT22;6592;47.484;9.726;2023-04-25T05:16:07;8.60;99.90
13052;DHT22;6592;47.484;9.726;2023-04-25T05:18:35;8.50;99.90
13052;DHT22;6592;47.484;9.726;2023-04-25T05:21:04;8.50;99.90
13052;DHT22;6592;47.484;9.726;2023-04-25T05:23:33;8.50;99.90
13052;DHT22;6592;47.484;9.726;2023-04-25T05:26:03;8.50;99.90
13052;DHT22;6592;47.484;9.726;2023-04-25T05:28:31;8.50;99.90
13052;DHT22;6592;47.484;9.726;2023-04-25T05:30:59;8.60;99.90
13052;DHT22;6592;47.484;9.726;2023-04-25T05:33:27;8.80;99.90
13052;DHT22;6592;47.484;9.726;2023-04-25T05:35:56;8.80;99.90
13052;DHT22;6592;47.484;9.726;2023-04-25T05:38:24;8.90;99.90
13052;DHT22;6592;47.484;9.726;2023-04-25T05:40:52;9.00;99.90
13052;DHT22;6592;47.484;9.726;2023-04-25T05:43:22;9.10;99.90
13052;DHT22;6592;47.484;9.726;2023-04-25T05:45:50;9.20;99.90
13052;DHT22;6592;47.484;9.726;2023-04-25T05:48:19;9.20;99.90
13052;DHT22;6592;47.484;9.726;2023-04-25T05:50:47;9.20;99.90
13052;DHT22;6592;47.484;9.726;2023-04-25T05:53:15;9.30;99.90
13052;DHT22;6592;47.484;9.726;2023-04-25T05:55:44;9.40;99.90
13052;DHT22;6592;47.484;9.726;2023-04-25T05:58:12;9.40;99.90
13052;DHT22;6592;47.484;9.726;2023-04-25T06:00:42;9.40;99.90
13052;DHT22;6592;47.484;9.726;2023-04-25T06:03:10;9.50;99.90
13052;DHT22;6592;47.484;9.726;2023-04-25T06:05:39;9.50;99.90
13052;DHT22;6592;47.484;9.726;2023-04-25T06:08:07;9.60;99.90
13052;DHT22;6592;47.484;9.726;2023-04-25T06:10:35;9.70;99.90
13052;DHT22;6592;47.484;9.726;2023-04-25T06:13:04;9.80;99.90
13052;DHT22;6592;47.484;9.726;2023-04-25T06:15:33;9.90;99.90
13052;DHT22;6592;47.484;9.726;2023-04-25T06:18:03;9.90;99.90
13052;DHT22;6592;47.484;9.726;2023-04-25T06:20:31;10.00;99.90
13052;DHT22;6592;47.484;9.726;2023-04-25T06:22:59;10.30;99.90
13052;DHT22;6592;47.484;9.726;2023-04-25T06:25:27;10.70;99.90
13052;DHT22;6592;47.484;9.726;2023-04-25T06:27:55;11.00;99.90
13052;DHT22;6592;47.484;9.726;2023-04-25T06:30:24;11.70;99.90
13052;DHT22;6592;47.484;9.726;2023-04-25T06:32:52;12.40;99.90
13052;DHT22;6592;47.484;9.726;2023-04-25T06:35:22;13.00;99.90
13052;DHT22;6592;47.484;9.726;2023-04-25T06:37:50;13.80;99.90
13052;DHT22;6592;47.484;9.726;2023-04-25T06:40:18;14.90;99.90
13052;DHT22;6592;47.484;9.726;2023-04-25T06:42:47;15.80;99.90
13052;DHT22;6592;47.484;9.726;2023-04-25T06:45:15;16.20;99.90
13052;DHT22;6592;47.484;9.726;2023-04-25T06:47:43;16.40;99.90
13052;DHT22;6592;47.484;9.726;2023-04-25T06:50:11;16.00;99.90
13052;DHT22;6592;47.484;9.726;2023-04-25T06:52:41;15.70;99.90
13052;DHT22;6592;47.484;9.726;2023-04-25T06:55:09;15.20;99.90
13052;DHT22;6592;47.484;9.726;2023-04-25T06:57:37;14.60;99.90
13052;DHT22;6592;47.484;9.726;2023-04-25T07:00:07;14.00;99.90
13052;DHT22;6592;47.484;9.726;2023-04-25T07:02:36;13.80;99.90
13052;DHT22;6592;47.484;9.726;2023-04-25T07:05:05;13.80;99.90
13052;DHT22;6592;47.484;9.726;2023-04-25T07:07:33;13.80;99.90
13052;DHT22;6592;47.484;9.726;2023-04-25T07:10:03;14.30;99.90
13052;DHT22;6592;47.484;9.726;2023-04-25T07:12:32;14.40;99.90
13052;DHT22;6592;47.484;9.726;2023-04-25T07:15:00;14.20;99.90
13052;DHT22;6592;47.484;9.726;2023-04-25T07:17:32;13.70;99.90
13052;DHT22;6592;47.484;9.726;2023-04-25T07:20:01;13.20;99.90
13052;DHT22;6592;47.484;9.726;2023-04-25T07:22:30;13.00;99.90
13052;DHT22;6592;47.484;9.726;2023-04-25T07:24:58;13.10;99.90
13052;DHT22;6592;47.484;9.726;2023-04-25T07:27:28;13.50;99.90
13052;DHT22;6592;47.484;9.726;2023-04-25T07:29:56;13.60;99.90
13052;DHT22;6592;47.484;9.726;2023-04-25T07:32:25;13.40;99.90
13052;DHT22;6592;47.484;9.726;2023-04-25T07:34:53;13.60;99.90
13052;DHT22;6592;47.484;9.726;2023-04-25T07:37:22;13.60;99.90
13052;DHT22;6592;47.484;9.726;2023-04-25T07:39:50;13.50;99.90
13052;DHT22;6592;47.484;9.726;2023-04-25T07:42:19;13.40;99.90
13052;DHT22;6592;47.484;9.726;2023-04-25T07:44:49;13.40;99.90
13052;DHT22;6592;47.484;9.726;2023-04-25T07:47:18;13.50;99.90
13052;DHT22;6592;47.484;9.726;2023-04-25T07:49:47;13.40;99.90
13052;DHT22;6592;47.484;9.726;2023-04-25T07:52:15;13.10;99.90
13052;DHT22;6592;47.484;9.726;2023-04-25T07:54:43;12.80;99.90
13052;DHT22;6592;47.484;9.726;2023-04-25T07:57:12;12.60;99.90
13052;DHT22;6592;47.484;9.726;2023-04-25T07:59:40;12.40;99.90
13052;DHT22;6592;47.484;9.726;2023-04-25T08:02:10;12.00;99.90
13052;DHT22;6592;47.484;9.726;2023-04-25T08:04:38;11.60;99.90
13052;DHT22;6592;47.484;9.726;2023-04-25T08:07:07;11.10;99.90
13052;DHT22;6592;47.484;9.726;2023-04-25T08:09:36;10.70;99.90
13052;DHT22;6592;47.484;9.726;2023-04-25T08:12:05;10.00;99.90
13052;DHT22;6592;47.484;9.726;2023-04-25T08:14:33;9.30;99.90
13052;DHT22;6592;47.484;9.726;2023-04-25T08:17:04;8.80;99.90
13052;DHT22;6592;47.484;9.726;2023-04-25T08:19:33;8.50;99.90
13052;DHT22;6592;47.484;9.726;2023-04-25T08:22:02;8.30;99.90
13052;DHT22;6592;47.484;9.726;2023-04-25T08:24:30;8.10;99.90
13052;DHT22;6592;47.484;9.726;2023-04-25T08:26:58;8.00;99.90
13052;DHT22;6592;47.484;9.726;2023-04-25T08:29:27;7.90;99.90
13052;DHT22;6592;47.484;9.726;2023-04-25T08:31:55;7.90;99.90
13052;DHT22;6592;47.484;9.726;2023-04-25T08:34:23;8.00;99.90
13052;DHT22;6592;47.484;9.726;2023-04-25T08:36:53;8.10;99.90
13052;DHT22;6592;47.484;9.726;2023-04-25T08:39:21;8.10;99.90
13052;DHT22;6592;47.484;9.726;2023-04-25T08:41:50;8.10;99.90
13052;DHT22;6592;47.484;9.726;2023-04-25T08:44:19;8.20;99.90
13052;DHT22;6592;47.484;9.726;2023-04-25T08:46:49;8.30;99.90
13052;DHT22;6592;47.484;9.726;2023-04-25T08:49:17;8.40;99.90
13052;DHT22;6592;47.484;9.726;2023-04-25T08:51:47;8.50;99.90
13052;DHT22;6592;47.484;9.726;2023-04-25T08:54:21;8.50;99.90
13052;DHT22;6592;47.484;9.726;2023-04-25T08:57:02;8.50;99.90
13052;DHT22;6592;47.484;9.726;2023-04-25T08:59:32;8.50;99.90
13052;DHT22;6592;47.484;9.726;2023-04-25T09:02:03;8.60;99.90
13052;DHT22;6592;47.484;9.726;2023-04-25T09:04:31;8.70;99.90
13052;DHT22;6592;47.484;9.726;2023-04-25T09:06:59;8.70;99.90
13052;DHT22;6592;47.484;9.726;2023-04-25T09:09:29;8.70;99.90
13052;DHT22;6592;47.484;9.726;2023-04-25T09:11:58;8.60;99.90
13052;DHT22;6592;47.484;9.726;2023-04-25T09:14:28;8.60;99.90
13052;DHT22;6592;47.484;9.726;2023-04-25T09:16:58;8.60;99.90
13052;DHT22;6592;47.484;9.726;2023-04-25T09:19:28;8.80;99.90
13052;DHT22;6592;47.484;9.726;2023-04-25T09:22:01;8.90;99.90
13052;DHT22;6592;47.484;9.726;2023-04-25T09:24:32;8.90;99.90
13052;DHT22;6592;47.484;9.726;2023-04-25T09:27:03;8.90;99.90
13052;DHT22;6592;47.484;9.726;2023-04-25T09:29:33;9.10;99.90
13052;DHT22;6592;47.484;9.726;2023-04-25T09:32:25;9.00;99.90
13052;DHT22;6592;47.484;9.726;2023-04-25T09:34:55;9.00;99.90
13052;DHT22;6592;47.484;9.726;2023-04-25T09:37:24;9.00;99.90
13052;DHT22;6592;47.484;9.726;2023-04-25T09:39:55;9.00;99.90
13052;DHT22;6592;47.484;9.726;2023-04-25T09:42:25;9.00;99.90
13052;DHT22;6592;47.484;9.726;2023-04-25T09:44:55;9.00;99.90
13052;DHT22;6592;47.484;9.726;2023-04-25T09:47:24;9.00;99.90
13052;DHT22;6592;47.484;9.726;2023-04-25T09:49:54;9.10;99.90
13052;DHT22;6592;47.484;9.726;2023-04-25T09:52:23;9.10;99.90
13052;DHT22;6592;47.484;9.726;2023-04-25T09:54:54;9.00;99.90
13052;DHT22;6592;47.484;9.726;2023-04-25T09:57:23;9.10;99.90
13052;DHT22;6592;47.484;9.726;2023-04-25T09:59:54;8.90;99.90
13052;DHT22;6592;47.484;9.726;2023-04-25T10:02:24;8.90;99.90
13052;DHT22;6592;47.484;9.726;2023-04-25T10:04:53;9.00;99.90
13052;DHT22;6592;47.484;9.726;2023-04-25T10:07:25;9.10;99.90
13052;DHT22;6592;47.484;9.726;2023-04-25T10:09:59;9.10;99.90
13052;DHT22;6592;47.484;9.726;2023-04-25T10:12:29;9.10;99.90
13052;DHT22;6592;47.484;9.726;2023-04-25T10:14:58;9.20;99.90
13052;DHT22;6592;47.484;9.726;2023-04-25T10:17:27;9.20;99.90
13052;DHT22;6592;47.484;9.726;2023-04-25T10:19:56;9.10;99.90
13052;DHT22;6592;47.484;9.726;2023-04-25T10:22:29;9.10;99.90
13052;DHT22;6592;47.484;9.726;2023-04-25T10:25:00;9.10;99.90
13052;DHT22;6592;47.484;9.726;2023-04-25T10:27:31;9.10;99.90
13052;DHT22;6592;47.484;9.726;2023-04-25T10:30:04;9.20;99.90
13052;DHT22;6592;47.484;9.726;2023-04-25T10:32:33;9.30;99.90
13052;DHT22;6592;47.484;9.726;2023-04-25T10:35:12;9.50;99.90
13052;DHT22;6592;47.484;9.726;2023-04-25T10:38:03;9.70;99.90
13052;DHT22;6592;47.484;9.726;2023-04-25T10:40:33;9.90;99.90
13052;DHT22;6592;47.484;9.726;2023-04-25T10:43:35;10.00;99.90
13052;DHT22;6592;47.484;9.726;2023-04-25T10:46:17;10.10;99.90
13052;DHT22;6592;47.484;9.726;2023-04-25T10:48:47;10.00;99.90
13052;DHT22;6592;47.484;9.726;2023-04-25T10:51:21;9.90;99.90
13052;DHT22;6592;47.484;9.726;2023-04-25T10:54:00;9.70;99.90
13052;DHT22;6592;47.484;9.726;2023-04-25T10:56:30;9.50;99.90
13052;DHT22;6592;47.484;9.726;2023-04-25T10:59:06;9.40;99.90
13052;DHT22;6592;47.484;9.726;2023-04-25T11:01:38;9.50;99.90
13052;DHT22;6592;47.484;9.726;2023-04-25T11:04:18;9.80;99.90
13052;DHT22;6592;47.484;9.726;2023-04-25T11:06:59;10.30;99.90
13052;DHT22;6592;47.484;9.726;2023-04-25T11:09:34;10.90;99.90
13052;DHT22;6592;47.484;9.726;2023-04-25T11:12:05;11.60;99.90
13052;DHT22;6592;47.484;9.726;2023-04-25T11:14:35;12.80;99.90
13052;DHT22;6592;47.484;9.726;2023-04-25T11:17:03;14.00;99.90
13052;DHT22;6592;47.484;9.726;2023-04-25T11:19:32;14.50;99.90
13052;DHT22;6592;47.484;9.726;2023-04-25T11:22:01;14.60;99.90
13052;DHT22;6592;47.484;9.726;2023-04-25T11:24:31;14.60;99.90
13052;DHT22;6592;47.484;9.726;2023-04-25T11:27:00;14.60;99.90
13052;DHT22;6592;47.484;9.726;2023-04-25T11:29:32;14.00;99.90
13052;DHT22;6592;47.484;9.726;2023-04-25T11:32:01;13.40;99.90
13052;DHT22;6592;47.484;9.726;2023-04-25T11:34:30;12.70;99.90
13052;DHT22;6592;47.484;9.726;2023-04-25T11:37:00;12.50;99.90
13052;DHT22;6592;47.484;9.726;2023-04-25T11:39:29;12.30;99.90
13052;DHT22;6592;47.484;9.726;2023-04-25T11:41:58;11.80;99.90
13052;DHT22;6592;47.484;9.726;2023-04-25T11:44:30;12.10;99.90
13052;DHT22;6592;47.484;9.726;2023-04-25T11:46:59;12.80;99.90
13052;DHT22;6592;47.484;9.726;2023-04-25T11:49:30;13.00;99.90
13052;DHT22;6592;47.484;9.726;2023-04-25T11:51:59;13.50;99.90
13052;DHT22;6592;47.484;9.726;2023-04-25T11:54:27;14.10;99.90
13052;DHT22;6592;47.484;9.726;2023-04-25T11:56:55;14.60;99.90
13052;DHT22;6592;47.484;9.726;2023-04-25T11:59:24;14.90;99.90
13052;DHT22;6592;47.484;9.726;2023-04-25T12:01:55;15.10;99.90
13052;DHT22;6592;47.484;9.726;2023-04-25T12:04:25;14.90;99.90
13052;DHT22;6592;47.484;9.726;2023-04-25T12:06:54;15.00;99.90
13052;DHT22;6592;47.484;9.726;2023-04-25T12:09:28;14.90;99.90
13052;DHT22;6592;47.484;9.726;2023-04-25T12:11:58;14.40;99.90
13052;DHT22;6592;47.484;9.726;2023-04-25T12:14:31;13.90;99.90
13052;DHT22;6592;47.484;9.726;2023-04-25T12:17:02;13.40;99.90
13052;DHT22;6592;47.484;9.726;2023-04-25T12:19:33;13.10;99.90
13052;DHT22;6592;47.484;9.726;2023-04-25T12:22:02;12.60;99.90
13052;DHT22;6592;47.484;9.726;2023-04-25T12:24:33;12.20;99.90
13052;DHT22;6592;47.484;9.726;2023-04-25T12:27:06;11.70;99.90
13052;DHT22;6592;47.484;9.726;2023-04-25T12:29:35;11.30;99.90
13052;DHT22;6592;47.484;9.726;2023-04-25T12:32:17;10.90;99.90
13052;DHT22;6592;47.484;9.726;2023-04-25T12:34:45;10.70;99.90
13052;DHT22;6592;47.484;9.726;2023-04-25T12:37:14;10.40;99.90
13052;DHT22;6592;47.484;9.726;2023-04-25T12:39:42;10.20;99.90
13052;DHT22;6592;47.484;9.726;2023-04-25T12:42:10;10.20;99.90
13052;DHT22;6592;47.484;9.726;2023-04-25T12:44:39;10.20;99.90
13052;DHT22;6592;47.484;9.726;2023-04-25T12:47:08;10.10;99.90
13052;DHT22;6592;47.484;9.726;2023-04-25T12:49:38;10.00;99.90
13052;DHT22;6592;47.484;9.726;2023-04-25T12:52:06;9.60;99.90
13052;DHT22;6592;47.484;9.726;2023-04-25T12:54:34;9.20;99.90
13052;DHT22;6592;47.484;9.726;2023-04-25T12:57:03;8.80;99.90
13052;DHT22;6592;47.484;9.726;2023-04-25T12:59:31;8.50;99.90
13052;DHT22;6592;47.484;9.726;2023-04-25T13:01:59;8.20;99.90
13052;DHT22;6592;47.484;9.726;2023-04-25T13:04:28;8.20;99.90
13052;DHT22;6592;47.484;9.726;2023-04-25T13:06:58;8.00;99.90
13052;DHT22;6592;47.484;9.726;2023-04-25T13:09:26;8.00;99.90
13052;DHT22;6592;47.484;9.726;2023-04-25T13:11:55;8.10;99.90
13052;DHT22;6592;47.484;9.726;2023-04-25T13:14:25;8.30;99.90
13052;DHT22;6592;47.484;9.726;2023-04-25T13:16:53;8.50;99.90
13052;DHT22;6592;47.484;9.726;2023-04-25T13:19:22;8.90;99.90
13052;DHT22;6592;47.484;9.726;2023-04-25T13:21:50;9.10;99.90
13052;DHT22;6592;47.484;9.726;2023-04-25T13:24:20;9.50;99.90
13052;DHT22;6592;47.484;9.726;2023-04-25T13:26:48;10.30;99.90
13052;DHT22;6592;47.484;9.726;2023-04-25T13:29:16;11.00;99.90
13052;DHT22;6592;47.484;9.726;2023-04-25T13:31:44;12.10;99.90
13052;DHT22;6592;47.484;9.726;2023-04-25T13:34:12;13.40;99.90
13052;DHT22;6592;47.484;9.726;2023-04-25T13:36:41;14.80;99.90
13052;DHT22;6592;47.484;9.726;2023-04-25T13:39:10;15.90;99.90
13052;DHT22;6592;47.484;9.726;2023-04-25T13:41:40;16.70;99.90
13052;DHT22;6592;47.484;9.726;2023-04-25T13:44:08;17.20;99.90
13052;DHT22;6592;47.484;9.726;2023-04-25T13:46:37;17.00;99.90
13052;DHT22;6592;47.484;9.726;2023-04-25T13:49:13;16.10;99.90
13052;DHT22;6592;47.484;9.726;2023-04-25T13:51:42;15.30;99.90
13052;DHT22;6592;47.484;9.726;2023-04-25T13:54:10;15.00;99.90
13052;DHT22;6592;47.484;9.726;2023-04-25T13:56:41;14.40;99.90
13052;DHT22;6592;47.484;9.726;2023-04-25T13:59:09;13.90;99.90
13052;DHT22;6592;47.484;9.726;2023-04-25T14:01:38;13.40;99.90
13052;DHT22;6592;47.484;9.726;2023-04-25T14:04:06;12.40;99.90
13052;DHT22;6592;47.484;9.726;2023-04-25T14:06:34;11.60;99.90
13052;DHT22;6592;47.484;9.726;2023-04-25T14:09:04;10.80;99.90
13052;DHT22;6592;47.484;9.726;2023-04-25T14:11:33;10.40;99.90
13052;DHT22;6592;47.484;9.726;2023-04-25T14:14:03;10.00;99.90
13052;DHT22;6592;47.484;9.726;2023-04-25T14:16:33;9.80;99.90
13052;DHT22;6592;47.484;9.726;2023-04-25T14:19:02;9.50;99.90
13052;DHT22;6592;47.484;9.726;2023-04-25T14:21:30;9.50;99.90
13052;DHT22;6592;47.484;9.726;2023-04-25T14:24:00;9.40;99.90
13052;DHT22;6592;47.484;9.726;2023-04-25T14:26:28;9.30;99.90
13052;DHT22;6592;47.484;9.726;2023-04-25T14:28:57;9.20;99.90
13052;DHT22;6592;47.484;9.726;2023-04-25T14:31:26;8.90;99.90
13052;DHT22;6592;47.484;9.726;2023-04-25T14:33:55;8.80;99.90
13052;DHT22;6592;47.484;9.726;2023-04-25T14:36:25;8.80;99.90
13052;DHT22;6592;47.484;9.726;2023-04-25T14:38:54;8.80;99.90
13052;DHT22;6592;47.484;9.726;2023-04-25T14:41:22;9.00;99.90
13052;DHT22;6592;47.484;9.726;2023-04-25T14:43:51;9.50;99.90
13052;DHT22;6592;47.484;9.726;2023-04-25T14:46:21;10.00;99.90
13052;DHT22;6592;47.484;9.726;2023-04-25T14:48:51;10.00;99.90
13052;DHT22;6592;47.484;9.726;2023-04-25T14:51:20;10.20;99.90
13052;DHT22;6592;47.484;9.726;2023-04-25T14:53:48;10.30;99.90
13052;DHT22;6592;47.484;9.726;2023-04-25T14:56:17;10.40;99.90
13052;DHT22;6592;47.484;9.726;2023-04-25T14:58:46;10.20;99.90
13052;DHT22;6592;47.484;9.726;2023-04-25T15:01:14;10.10;99.90
13052;DHT22;6592;47.484;9.726;2023-04-25T15:03:42;10.00;99.90
13052;DHT22;6592;47.484;9.726;2023-04-25T15:06:12;9.80;99.90
13052;DHT22;6592;47.484;9.726;2023-04-25T15:08:41;9.70;99.90
13052;DHT22;6592;47.484;9.726;2023-04-25T15:11:09;9.50;99.90
13052;DHT22;6592;47.484;9.726;2023-04-25T15:13:38;9.40;99.90
13052;DHT22;6592;47.484;9.726;2023-04-25T15:16:07;9.50;99.90
13052;DHT22;6592;47.484;9.726;2023-04-25T15:18:35;9.70;99.90
13052;DHT22;6592;47.484;9.726;2023-04-25T15:21:03;9.70;99.90
13052;DHT22;6592;47.484;9.726;2023-04-25T15:23:33;9.90;99.90
13052;DHT22;6592;47.484;9.726;2023-04-25T15:26:01;10.00;99.90
13052;DHT22;6592;47.484;9.726;2023-04-25T15:28:30;10.10;99.90
13052;DHT22;6592;47.484;9.726;2023-04-25T15:30:58;10.30;99.90
13052;DHT22;6592;47.484;9.726;2023-04-25T15:33:26;10.50;99.90
13052;DHT22;6592;47.484;9.726;2023-04-25T15:35:54;10.60;99.90
13052;DHT22;6592;47.484;9.726;2023-04-25T15:38:24;10.60;99.90
13052;DHT22;6592;47.484;9.726;2023-04-25T15:40:54;10.70;99.90
13052;DHT22;6592;47.484;9.726;2023-04-25T15:43:22;10.70;99.90
13052;DHT22;6592;47.484;9.726;2023-04-25T15:45:50;10.70;99.90
13052;DHT22;6592;47.484;9.726;2023-04-25T15:48:18;10.70;99.90
13052;DHT22;6592;47.484;9.726;2023-04-25T15:50:47;10.70;99.90
13052;DHT22;6592;47.484;9.726;2023-04-25T15:53:15;10.70;99.90
13052;DHT22;6592;47.484;9.726;2023-04-25T15:55:43;10.80;99.90
13052;DHT22;6592;47.484;9.726;2023-04-25T15:58:13;10.70;99.90
13052;DHT22;6592;47.484;9.726;2023-04-25T16:00:41;10.70;99.90
13052;DHT22;6592;47.484;9.726;2023-04-25T16:03:09;10.60;99.90
13052;DHT22;6592;47.484;9.726;2023-04-25T16:05:37;10.50;99.90
13052;DHT22;6592;47.484;9.726;2023-04-25T16:08:06;10.60;99.90
13052;DHT22;6592;47.484;9.726;2023-04-25T16:10:35;10.60;99.90